sensor_id;sensor_type;location;lat;lon;timestamp;temperature;humidity
9103;DHT22;4587;51.434;6.788;2022-09-28T00:01:14;9.50;99.90
9103;DHT22;4587;51.434;6.788;2022-09-28T00:03:40;9.50;99.90
9103;DHT22;4587;51.434;6.788;2022-09-28T00:06:08;9.50;99.90
9103;DHT22;4587;51.434;6.788;2022-09-28T00:08:35;9.50;99.90
9103;DHT22;4587;51.434;6.788;2022-09-28T00:11:01;9.50;99.90
9103;DHT22;4587;51.434;6.788;2022-09-28T00:13:27;9.50;99.90
9103;DHT22;4587;51.434;6.788;2022-09-28T00:16:06;9.50;99.90
9103;DHT22;4587;51.434;6.788;2022-09-28T00:18:33;9.60;99.90
9103;DHT22;4587;51.434;6.788;2022-09-28T00:21:04;9.60;99.90
9103;DHT22;4587;51.434;6.788;2022-09-28T00:23:30;9.60;99.90
9103;DHT22;4587;51.434;6.788;2022-09-28T00:26:03;9.70;99.90
9103;DHT22;4587;51.434;6.788;2022-09-28T00:28:29;9.70;99.90
9103;DHT22;4587;51.434;6.788;2022-09-28T00:30:56;9.70;99.90
9103;DHT22;4587;51.434;6.788;2022-09-28T00:33:21;9.70;99.90
9103;DHT22;4587;51.434;6.788;2022-09-28T00:35:57;9.60;99.90
9103;DHT22;4587;51.434;6.788;2022-09-28T00:38:26;9.70;99.90
9103;DHT22;4587;51.434;6.788;2022-09-28T00:40:51;9.60;99.90
9103;DHT22;4587;51.434;6.788;2022-09-28T00:43:21;9.80;99.90
9103;DHT22;4587;51.434;6.788;2022-09-28T00:45:53;9.70;99.90
9103;DHT22;4587;51.434;6.788;2022-09-28T00:48:19;9.70;99.90
9103;DHT22;4587;51.434;6.788;2022-09-28T00:50:45;9.50;99.90
9103;DHT22;4587;51.434;6.788;2022-09-28T00:53:18;9.60;99.90
9103;DHT22;4587;51.434;6.788;2022-09-28T00:55:49;9.60;99.90
9103;DHT22;4587;51.434;6.788;2022-09-28T00:58:23;9.50;99.90
9103;DHT22;4587;51.434;6.788;2022-09-28T01:00:49;9.50;99.90
9103;DHT22;4587;51.434;6.788;2022-09-28T01:03:15;9.50;99.90
9103;DHT22;4587;51.434;6.788;2022-09-28T01:05:42;9.50;99.90
9103;DHT22;4587;51.434;6.788;2022-09-28T01:08:09;9.30;99.90
9103;DHT22;4587;51.434;6.788;2022-09-28T01:10:37;9.30;99.90
9103;DHT22;4587;51.434;6.788;2022-09-28T01:13:03;9.30;99.90
9103;DHT22;4587;51.434;6.788;2022-09-28T01:15:32;9.20;99.90
9103;DHT22;4587;51.434;6.788;2022-09-28T01:18:18;9.20;99.90
9103;DHT22;4587;51.434;6.788;2022-09-28T01:21:00;9.20;99.90
9103;DHT22;4587;51.434;6.788;2022-09-28T01:24:04;9.10;99.90
9103;DHT22;4587;51.434;6.788;2022-09-28T01:26:43;9.20;99.90
9103;DHT22;4587;51.434;6.788;2022-09-28T01:29:25;9.30;99.90
9103;DHT22;4587;51.434;6.788;2022-09-28T01:34:37;9.30;99.90
9103;DHT22;4587;51.434;6.788;2022-09-28T01:37:08;9.30;99.90
9103;DHT22;4587;51.434;6.788;2022-09-28T01:39:39;9.40;99.90
9103;DHT22;4587;51.434;6.788;2022-09-28T01:42:18;9.30;99.90
9103;DHT22;4587;51.434;6.788;2022-09-28T01:44:48;9.30;99.90
9103;DHT22;4587;51.434;6.788;2022-09-28T01:47:19;9.30;99.90
9103;DHT22;4587;51.434;6.788;2022-09-28T01:49:57;9.40;99.90
9103;DHT22;4587;51.434;6.788;2022-09-28T01:52:30;9.30;99.90
9103;DHT22;4587;51.434;6.788;2022-09-28T01:55:13;9.40;99.90
9103;DHT22;4587;51.434;6.788;2022-09-28T01:57:50;9.40;99.90
9103;DHT22;4587;51.434;6.788;2022-09-28T02:00:18;9.40;99.90
9103;DHT22;4587;51.434;6.788;2022-09-28T02:03:08;9.40;99.90
9103;DHT22;4587;51.434;6.788;2022-09-28T02:05:38;9.40;99.90
9103;DHT22;4587;51.434;6.788;2022-09-28T02:10:39;9.50;99.90
9103;DHT22;4587;51.434;6.788;2022-09-28T02:13:20;9.50;99.90
9103;DHT22;4587;51.434;6.788;2022-09-28T02:18:28;9.50;99.90
9103;DHT22;4587;51.434;6.788;2022-09-28T02:21:22;9.40;99.90
9103;DHT22;4587;51.434;6.788;2022-09-28T02:24:01;9.40;99.90
9103;DHT22;4587;51.434;6.788;2022-09-28T02:26:35;9.40;99.90
9103;DHT22;4587;51.434;6.788;2022-09-28T02:29:02;9.30;99.90
9103;DHT22;4587;51.434;6.788;2022-09-28T02:31:28;9.40;99.90
9103;DHT22;4587;51.434;6.788;2022-09-28T02:33:56;9.40;99.90
9103;DHT22;4587;51.434;6.788;2022-09-28T02:36:24;9.40;99.90
9103;DHT22;4587;51.434;6.788;2022-09-28T02:38:50;9.40;99.90
9103;DHT22;4587;51.434;6.788;2022-09-28T02:41:45;9.30;99.90
9103;DHT22;4587;51.434;6.788;2022-09-28T02:44:42;9.30;99.90
9103;DHT22;4587;51.434;6.788;2022-09-28T02:50:29;9.20;99.90
9103;DHT22;4587;51.434;6.788;2022-09-28T03:01:51;9.20;99.90
9103;DHT22;4587;51.434;6.788;2022-09-28T03:12:45;9.20;99.90
9103;DHT22;4587;51.434;6.788;2022-09-28T03:15:23;9.10;99.90
9103;DHT22;4587;51.434;6.788;2022-09-28T03:17:49;9.10;99.90
9103;DHT22;4587;51.434;6.788;2022-09-28T03:20:16;9.10;99.90
9103;DHT22;4587;51.434;6.788;2022-09-28T03:22:41;9.20;99.90
9103;DHT22;4587;51.434;6.788;2022-09-28T03:25:07;9.20;99.90
9103;DHT22;4587;51.434;6.788;2022-09-28T03:27:33;9.20;99.90
9103;DHT22;4587;51.434;6.788;2022-09-28T03:29:59;9.20;99.90
9103;DHT22;4587;51.434;6.788;2022-09-28T03:32:24;9.30;99.90
9103;DHT22;4587;51.434;6.788;2022-09-28T03:34:50;9.30;99.90
9103;DHT22;4587;51.434;6.788;2022-09-28T03:37:16;9.20;99.90
9103;DHT22;4587;51.434;6.788;2022-09-28T03:39:41;9.20;99.90
9103;DHT22;4587;51.434;6.788;2022-09-28T03:42:07;9.20;99.90
9103;DHT22;4587;51.434;6.788;2022-09-28T03:44:32;9.20;99.90
9103;DHT22;4587;51.434;6.788;2022-09-28T03:46:58;9.10;99.90
9103;DHT22;4587;51.434;6.788;2022-09-28T03:49:23;9.20;99.90
9103;DHT22;4587;51.434;6.788;2022-09-28T03:51:49;9.20;99.90
9103;DHT22;4587;51.434;6.788;2022-09-28T03:54:15;9.20;99.90
9103;DHT22;4587;51.434;6.788;2022-09-28T03:56:40;9.20;99.90
9103;DHT22;4587;51.434;6.788;2022-09-28T03:59:06;9.20;99.90
9103;DHT22;4587;51.434;6.788;2022-09-28T04:01:32;9.20;99.90
9103;DHT22;4587;51.434;6.788;2022-09-28T04:03:57;9.30;99.90
9103;DHT22;4587;51.434;6.788;2022-09-28T04:06:24;9.20;99.90
9103;DHT22;4587;51.434;6.788;2022-09-28T04:08:50;9.20;99.90
9103;DHT22;4587;51.434;6.788;2022-09-28T04:11:16;9.20;99.90
9103;DHT22;4587;51.434;6.788;2022-09-28T04:13:41;9.20;99.90
9103;DHT22;4587;51.434;6.788;2022-09-28T04:16:09;9.20;99.90
9103;DHT22;4587;51.434;6.788;2022-09-28T04:18:35;9.20;99.90
9103;DHT22;4587;51.434;6.788;2022-09-28T04:21:04;9.20;99.90
9103;DHT22;4587;51.434;6.788;2022-09-28T04:23:34;9.30;99.90
9103;DHT22;4587;51.434;6.788;2022-09-28T04:26:02;9.20;99.90
9103;DHT22;4587;51.434;6.788;2022-09-28T04:28:28;9.30;99.90
9103;DHT22;4587;51.434;6.788;2022-09-28T04:31:15;9.20;99.90
9103;DHT22;4587;51.434;6.788;2022-09-28T04:33:41;9.30;99.90
9103;DHT22;4587;51.434;6.788;2022-09-28T04:36:06;9.30;99.90
9103;DHT22;4587;51.434;6.788;2022-09-28T04:38:33;9.30;99.90
9103;DHT22;4587;51.434;6.788;2022-09-28T04:40:59;9.30;99.90
9103;DHT22;4587;51.434;6.788;2022-09-28T04:43:25;9.30;99.90
9103;DHT22;4587;51.434;6.788;2022-09-28T04:45:51;9.30;99.90
9103;DHT22;4587;51.434;6.788;2022-09-28T04:48:16;9.30;99.90
9103;DHT22;4587;51.434;6.788;2022-09-28T04:50:42;9.30;99.90
9103;DHT22;4587;51.434;6.788;2022-09-28T04:53:07;9.30;99.90
9103;DHT22;4587;51.434;6.788;2022-09-28T04:55:33;9.30;99.90
9103;DHT22;4587;51.434;6.788;2022-09-28T04:57:59;9.30;99.90
9103;DHT22;4587;51.434;6.788;2022-09-28T05:00:30;9.20;99.90
9103;DHT22;4587;51.434;6.788;2022-09-28T05:03:00;9.30;99.90
9103;DHT22;4587;51.434;6.788;2022-09-28T05:05:25;9.30;99.90
9103;DHT22;4587;51.434;6.788;2022-09-28T05:07:51;9.30;99.90
9103;DHT22;4587;51.434;6.788;2022-09-28T05:10:16;9.40;99.90
9103;DHT22;4587;51.434;6.788;2022-09-28T05:12:44;9.30;99.90
9103;DHT22;4587;51.434;6.788;2022-09-28T05:15:10;9.30;99.90
9103;DHT22;4587;51.434;6.788;2022-09-28T05:17:35;9.30;99.90
9103;DHT22;4587;51.434;6.788;2022-09-28T05:20:01;9.30;99.90
9103;DHT22;4587;51.434;6.788;2022-09-28T05:22:27;9.30;99.90
9103;DHT22;4587;51.434;6.788;2022-09-28T05:24:53;9.30;99.90
9103;DHT22;4587;51.434;6.788;2022-09-28T05:27:19;9.30;99.90
9103;DHT22;4587;51.434;6.788;2022-09-28T05:29:45;9.30;99.90
9103;DHT22;4587;51.434;6.788;2022-09-28T05:32:11;9.30;99.90
9103;DHT22;4587;51.434;6.788;2022-09-28T05:34:36;9.40;99.90
9103;DHT22;4587;51.434;6.788;2022-09-28T05:37:02;9.30;99.90
9103;DHT22;4587;51.434;6.788;2022-09-28T05:39:28;9.30;99.90
9103;DHT22;4587;51.434;6.788;2022-09-28T05:41:54;9.40;99.90
9103;DHT22;4587;51.434;6.788;2022-09-28T05:44:22;9.40;99.90
9103;DHT22;4587;51.434;6.788;2022-09-28T05:46:47;9.30;99.90
9103;DHT22;4587;51.434;6.788;2022-09-28T05:49:13;9.40;99.90
9103;DHT22;4587;51.434;6.788;2022-09-28T05:51:39;9.30;99.90
9103;DHT22;4587;51.434;6.788;2022-09-28T05:54:04;9.30;99.90
9103;DHT22;4587;51.434;6.788;2022-09-28T05:56:30;9.40;99.90
9103;DHT22;4587;51.434;6.788;2022-09-28T05:58:57;9.50;99.90
9103;DHT22;4587;51.434;6.788;2022-09-28T06:01:23;9.40;99.90
9103;DHT22;4587;51.434;6.788;2022-09-28T06:03:49;9.50;99.90
9103;DHT22;4587;51.434;6.788;2022-09-28T06:06:14;9.50;99.90
9103;DHT22;4587;51.434;6.788;2022-09-28T06:08:40;9.50;99.90
9103;DHT22;4587;51.434;6.788;2022-09-28T06:11:10;9.60;99.90
9103;DHT22;4587;51.434;6.788;2022-09-28T06:13:37;9.60;99.90
9103;DHT22;4587;51.434;6.788;2022-09-28T06:16:05;9.60;99.90
9103;DHT22;4587;51.434;6.788;2022-09-28T06:18:32;9.70;99.90
9103;DHT22;4587;51.434;6.788;2022-09-28T06:20:57;9.70;99.90
9103;DHT22;4587;51.434;6.788;2022-09-28T06:23:23;9.60;99.90
9103;DHT22;4587;51.434;6.788;2022-09-28T06:25:48;9.60;99.90
9103;DHT22;4587;51.434;6.788;2022-09-28T06:28:14;9.60;99.90
9103;DHT22;4587;51.434;6.788;2022-09-28T06:30:42;9.70;99.90
9103;DHT22;4587;51.434;6.788;2022-09-28T06:33:11;9.60;99.90
9103;DHT22;4587;51.434;6.788;2022-09-28T06:35:37;9.70;99.90
9103;DHT22;4587;51.434;6.788;2022-09-28T06:38:03;9.70;99.90
9103;DHT22;4587;51.434;6.788;2022-09-28T06:40:29;9.70;99.90
9103;DHT22;4587;51.434;6.788;2022-09-28T06:43:01;9.70;99.90
9103;DHT22;4587;51.434;6.788;2022-09-28T06:45:29;9.80;99.90
9103;DHT22;4587;51.434;6.788;2022-09-28T06:47:59;9.90;99.90
9103;DHT22;4587;51.434;6.788;2022-09-28T06:50:28;9.90;99.90
9103;DHT22;4587;51.434;6.788;2022-09-28T06:52:57;9.90;99.90
9103;DHT22;4587;51.434;6.788;2022-09-28T06:55:23;9.90;99.90
9103;DHT22;4587;51.434;6.788;2022-09-28T06:58:00;9.90;99.90
9103;DHT22;4587;51.434;6.788;2022-09-28T07:00:31;9.90;99.90
9103;DHT22;4587;51.434;6.788;2022-09-28T07:03:02;9.90;99.90
9103;DHT22;4587;51.434;6.788;2022-09-28T07:05:28;10.00;99.90
9103;DHT22;4587;51.434;6.788;2022-09-28T07:07:55;10.00;99.90
9103;DHT22;4587;51.434;6.788;2022-09-28T07:10:26;10.00;99.90
9103;DHT22;4587;51.434;6.788;2022-09-28T07:12:52;10.00;99.90
9103;DHT22;4587;51.434;6.788;2022-09-28T07:15:19;10.00;99.90
9103;DHT22;4587;51.434;6.788;2022-09-28T07:17:45;9.90;99.90
9103;DHT22;4587;51.434;6.788;2022-09-28T07:20:11;9.90;99.90
9103;DHT22;4587;51.434;6.788;2022-09-28T07:22:36;10.00;99.90
9103;DHT22;4587;51.434;6.788;2022-09-28T07:25:04;10.00;99.90
9103;DHT22;4587;51.434;6.788;2022-09-28T07:27:30;10.00;99.90
9103;DHT22;4587;51.434;6.788;2022-09-28T07:29:55;10.00;99.90
9103;DHT22;4587;51.434;6.788;2022-09-28T07:32:23;10.00;99.90
9103;DHT22;4587;51.434;6.788;2022-09-28T07:34:49;10.00;99.90
9103;DHT22;4587;51.434;6.788;2022-09-28T07:37:16;10.00;99.90
9103;DHT22;4587;51.434;6.788;2022-09-28T07:39:44;10.00;99.90
9103;DHT22;4587;51.434;6.788;2022-09-28T07:42:29;10.00;99.90
9103;DHT22;4587;51.434;6.788;2022-09-28T07:44:56;10.10;99.90
9103;DHT22;4587;51.434;6.788;2022-09-28T07:47:22;10.00;99.90
9103;DHT22;4587;51.434;6.788;2022-09-28T07:49:57;10.10;99.90
9103;DHT22;4587;51.434;6.788;2022-09-28T07:52:23;10.00;99.90
9103;DHT22;4587;51.434;6.788;2022-09-28T07:54:51;10.10;99.90
9103;DHT22;4587;51.434;6.788;2022-09-28T07:57:18;10.10;99.90
9103;DHT22;4587;51.434;6.788;2022-09-28T07:59:44;10.10;99.90
9103;DHT22;4587;51.434;6.788;2022-09-28T08:02:11;10.20;99.90
9103;DHT22;4587;51.434;6.788;2022-09-28T08:04:36;10.30;99.90
9103;DHT22;4587;51.434;6.788;2022-09-28T08:07:02;10.30;99.90
9103;DHT22;4587;51.434;6.788;2022-09-28T08:09:28;10.40;99.90
9103;DHT22;4587;51.434;6.788;2022-09-28T08:11:54;10.40;99.90
9103;DHT22;4587;51.434;6.788;2022-09-28T08:14:20;10.50;99.90
9103;DHT22;4587;51.434;6.788;2022-09-28T08:16:45;10.60;99.90
9103;DHT22;4587;51.434;6.788;2022-09-28T08:19:11;10.60;99.90
9103;DHT22;4587;51.434;6.788;2022-09-28T08:21:37;10.60;99.90
9103;DHT22;4587;51.434;6.788;2022-09-28T08:24:13;10.60;99.90
9103;DHT22;4587;51.434;6.788;2022-09-28T08:26:40;10.60;99.90
9103;DHT22;4587;51.434;6.788;2022-09-28T08:29:06;10.60;99.90
9103;DHT22;4587;51.434;6.788;2022-09-28T08:31:32;10.60;99.90
9103;DHT22;4587;51.434;6.788;2022-09-28T08:33:58;10.70;99.90
9103;DHT22;4587;51.434;6.788;2022-09-28T08:36:24;10.70;99.90
9103;DHT22;4587;51.434;6.788;2022-09-28T08:38:49;10.80;99.90
9103;DHT22;4587;51.434;6.788;2022-09-28T08:44:01;11.40;99.90
9103;DHT22;4587;51.434;6.788;2022-09-28T08:46:36;12.20;99.90
9103;DHT22;4587;51.434;6.788;2022-09-28T08:49:11;12.40;99.90
9103;DHT22;4587;51.434;6.788;2022-09-28T08:51:49;12.30;99.90
9103;DHT22;4587;51.434;6.788;2022-09-28T08:54:27;12.10;99.90
9103;DHT22;4587;51.434;6.788;2022-09-28T08:57:04;12.00;99.90
9103;DHT22;4587;51.434;6.788;2022-09-28T08:59:55;12.00;99.90
9103;DHT22;4587;51.434;6.788;2022-09-28T09:02:26;12.00;99.90
9103;DHT22;4587;51.434;6.788;2022-09-28T09:04:53;12.30;99.90
9103;DHT22;4587;51.434;6.788;2022-09-28T09:10:22;12.70;99.90
9103;DHT22;4587;51.434;6.788;2022-09-28T09:15:53;12.40;99.90
9103;DHT22;4587;51.434;6.788;2022-09-28T09:21:14;12.40;99.90
9103;DHT22;4587;51.434;6.788;2022-09-28T09:23:58;12.40;99.90
9103;DHT22;4587;51.434;6.788;2022-09-28T09:26:37;12.40;99.90
9103;DHT22;4587;51.434;6.788;2022-09-28T09:43:03;12.40;99.90
9103;DHT22;4587;51.434;6.788;2022-09-28T09:48:57;12.40;99.90
9103;DHT22;4587;51.434;6.788;2022-09-28T09:54:30;12.40;99.90
9103;DHT22;4587;51.434;6.788;2022-09-28T09:57:04;12.30;99.90
9103;DHT22;4587;51.434;6.788;2022-09-28T09:59:35;12.40;99.90
9103;DHT22;4587;51.434;6.788;2022-09-28T10:10:35;13.00;99.90
9103;DHT22;4587;51.434;6.788;2022-09-28T10:13:01;13.30;99.90
9103;DHT22;4587;51.434;6.788;2022-09-28T10:15:30;13.50;99.90
9103;DHT22;4587;51.434;6.788;2022-09-28T10:17:59;13.70;99.90
9103;DHT22;4587;51.434;6.788;2022-09-28T10:20:28;13.90;99.90
9103;DHT22;4587;51.434;6.788;2022-09-28T10:22:57;13.90;99.90
9103;DHT22;4587;51.434;6.788;2022-09-28T10:25:26;14.00;99.90
9103;DHT22;4587;51.434;6.788;2022-09-28T10:27:53;14.10;99.90
9103;DHT22;4587;51.434;6.788;2022-09-28T10:30:21;14.10;99.90
9103;DHT22;4587;51.434;6.788;2022-09-28T10:32:49;14.20;99.90
9103;DHT22;4587;51.434;6.788;2022-09-28T10:37:56;14.30;99.90
9103;DHT22;4587;51.434;6.788;2022-09-28T10:43:02;14.40;99.90
9103;DHT22;4587;51.434;6.788;2022-09-28T10:45:35;14.50;99.90
9103;DHT22;4587;51.434;6.788;2022-09-28T10:48:13;14.40;99.90
9103;DHT22;4587;51.434;6.788;2022-09-28T10:50:40;14.30;99.90
9103;DHT22;4587;51.434;6.788;2022-09-28T10:53:11;14.10;99.90
9103;DHT22;4587;51.434;6.788;2022-09-28T10:55:40;13.90;99.90
9103;DHT22;4587;51.434;6.788;2022-09-28T10:58:36;13.70;99.90
9103;DHT22;4587;51.434;6.788;2022-09-28T11:01:07;13.50;99.90
9103;DHT22;4587;51.434;6.788;2022-09-28T11:03:40;13.40;99.90
9103;DHT22;4587;51.434;6.788;2022-09-28T11:06:11;13.20;99.90
9103;DHT22;4587;51.434;6.788;2022-09-28T11:08:39;13.10;99.90
9103;DHT22;4587;51.434;6.788;2022-09-28T11:11:12;13.00;99.90
9103;DHT22;4587;51.434;6.788;2022-09-28T11:13:58;12.90;99.90
9103;DHT22;4587;51.434;6.788;2022-09-28T11:16:30;12.90;99.90
9103;DHT22;4587;51.434;6.788;2022-09-28T11:19:02;12.90;99.90
9103;DHT22;4587;51.434;6.788;2022-09-28T11:21:29;13.10;99.90
9103;DHT22;4587;51.434;6.788;2022-09-28T11:24:04;13.30;99.90
9103;DHT22;4587;51.434;6.788;2022-09-28T11:26:41;13.60;99.90
9103;DHT22;4587;51.434;6.788;2022-09-28T11:32:00;13.80;99.90
9103;DHT22;4587;51.434;6.788;2022-09-28T11:34:35;13.70;99.90
9103;DHT22;4587;51.434;6.788;2022-09-28T11:37:17;13.70;99.90
9103;DHT22;4587;51.434;6.788;2022-09-28T11:42:50;13.70;99.90
9103;DHT22;4587;51.434;6.788;2022-09-28T11:48:33;14.10;99.90
9103;DHT22;4587;51.434;6.788;2022-09-28T11:51:06;14.30;99.90
9103;DHT22;4587;51.434;6.788;2022-09-28T11:53:41;14.30;99.90
9103;DHT22;4587;51.434;6.788;2022-09-28T11:58:43;14.30;99.90
9103;DHT22;4587;51.434;6.788;2022-09-28T12:01:39;14.30;99.90
9103;DHT22;4587;51.434;6.788;2022-09-28T12:04:20;14.40;99.90
9103;DHT22;4587;51.434;6.788;2022-09-28T12:15:23;14.50;99.90
9103;DHT22;4587;51.434;6.788;2022-09-28T12:18:06;14.70;99.90
9103;DHT22;4587;51.434;6.788;2022-09-28T12:20:37;14.70;99.90
9103;DHT22;4587;51.434;6.788;2022-09-28T12:23:13;14.70;99.90
9103;DHT22;4587;51.434;6.788;2022-09-28T12:25:46;14.80;99.90
9103;DHT22;4587;51.434;6.788;2022-09-28T12:28:38;14.80;99.90
9103;DHT22;4587;51.434;6.788;2022-09-28T12:31:15;14.70;99.90
9103;DHT22;4587;51.434;6.788;2022-09-28T12:33:46;14.60;99.90
9103;DHT22;4587;51.434;6.788;2022-09-28T12:36:40;14.50;99.90
9103;DHT22;4587;51.434;6.788;2022-09-28T12:44:50;14.40;99.90
9103;DHT22;4587;51.434;6.788;2022-09-28T12:53:18;14.40;99.90
9103;DHT22;4587;51.434;6.788;2022-09-28T12:59:04;14.40;99.90
9103;DHT22;4587;51.434;6.788;2022-09-28T13:04:39;14.30;99.90
9103;DHT22;4587;51.434;6.788;2022-09-28T13:07:36;14.20;99.90
9103;DHT22;4587;51.434;6.788;2022-09-28T13:15:39;14.10;99.90
9103;DHT22;4587;51.434;6.788;2022-09-28T13:20:58;14.10;99.90
9103;DHT22;4587;51.434;6.788;2022-09-28T13:23:29;14.20;99.90
9103;DHT22;4587;51.434;6.788;2022-09-28T13:28:26;14.20;99.90
9103;DHT22;4587;51.434;6.788;2022-09-28T13:30:54;14.10;99.90
9103;DHT22;4587;51.434;6.788;2022-09-28T13:33:33;14.10;99.90
9103;DHT22;4587;51.434;6.788;2022-09-28T13:36:02;14.00;99.90
9103;DHT22;4587;51.434;6.788;2022-09-28T13:38:42;14.00;99.90
9103;DHT22;4587;51.434;6.788;2022-09-28T13:41:11;13.90;99.90
9103;DHT22;4587;51.434;6.788;2022-09-28T13:47:05;13.80;99.90
9103;DHT22;4587;51.434;6.788;2022-09-28T13:52:45;13.80;99.90
9103;DHT22;4587;51.434;6.788;2022-09-28T13:57:44;13.50;99.90
9103;DHT22;4587;51.434;6.788;2022-09-28T14:03:23;13.40;99.90
9103;DHT22;4587;51.434;6.788;2022-09-28T14:06:40;13.40;99.90
9103;DHT22;4587;51.434;6.788;2022-09-28T14:11:55;13.30;99.90
9103;DHT22;4587;51.434;6.788;2022-09-28T14:14:29;13.30;99.90
9103;DHT22;4587;51.434;6.788;2022-09-28T14:19:44;13.30;99.90
9103;DHT22;4587;51.434;6.788;2022-09-28T14:22:24;13.30;99.90
9103;DHT22;4587;51.434;6.788;2022-09-28T14:27:43;13.30;99.90
9103;DHT22;4587;51.434;6.788;2022-09-28T14:32:51;13.30;99.90
9103;DHT22;4587;51.434;6.788;2022-09-28T14:35:26;13.20;99.90
9103;DHT22;4587;51.434;6.788;2022-09-28T14:37:56;13.20;99.90
9103;DHT22;4587;51.434;6.788;2022-09-28T14:41:02;13.20;99.90
9103;DHT22;4587;51.434;6.788;2022-09-28T14:54:18;13.10;99.90
9103;DHT22;4587;51.434;6.788;2022-09-28T14:59:19;12.90;99.90
9103;DHT22;4587;51.434;6.788;2022-09-28T15:01:52;12.90;99.90
9103;DHT22;4587;51.434;6.788;2022-09-28T15:04:19;12.80;99.90
9103;DHT22;4587;51.434;6.788;2022-09-28T15:06:49;12.70;99.90
9103;DHT22;4587;51.434;6.788;2022-09-28T15:11:50;12.40;99.90
9103;DHT22;4587;51.434;6.788;2022-09-28T15:14:21;12.40;99.90
9103;DHT22;4587;51.434;6.788;2022-09-28T15:16:47;12.30;99.90
9103;DHT22;4587;51.434;6.788;2022-09-28T15:21:45;12.20;99.90
9103;DHT22;4587;51.434;6.788;2022-09-28T15:24:31;12.10;99.90
9103;DHT22;4587;51.434;6.788;2022-09-28T15:26:59;12.00;99.90
9103;DHT22;4587;51.434;6.788;2022-09-28T15:29:24;12.00;99.90
9103;DHT22;4587;51.434;6.788;2022-09-28T15:31:55;12.00;99.90
9103;DHT22;4587;51.434;6.788;2022-09-28T15:34:35;12.10;99.90
9103;DHT22;4587;51.434;6.788;2022-09-28T15:37:32;12.10;99.90
9103;DHT22;4587;51.434;6.788;2022-09-28T15:40:00;12.00;99.90
9103;DHT22;4587;51.434;6.788;2022-09-28T15:42:27;12.00;99.90
9103;DHT22;4587;51.434;6.788;2022-09-28T15:47:29;11.80;99.90
9103;DHT22;4587;51.434;6.788;2022-09-28T15:49:59;11.80;99.90
9103;DHT22;4587;51.434;6.788;2022-09-28T15:52:42;11.70;99.90
9103;DHT22;4587;51.434;6.788;2022-09-28T15:57:49;11.80;99.90
9103;DHT22;4587;51.434;6.788;2022-09-28T16:00:24;12.00;99.90
9103;DHT22;4587;51.434;6.788;2022-09-28T16:13:29;11.80;99.90
9103;DHT22;4587;51.434;6.788;2022-09-28T16:15:57;11.80;99.90
9103;DHT22;4587;51.434;6.788;2022-09-28T16:18:25;11.80;99.90
9103;DHT22;4587;51.434;6.788;2022-09-28T16:20:55;11.80;99.90
9103;DHT22;4587;51.434;6.788;2022-09-28T16:25:53;11.80;99.90
9103;DHT22;4587;51.434;6.788;2022-09-28T16:36:39;11.50;99.90
9103;DHT22;4587;51.434;6.788;2022-09-28T16:39:08;11.40;99.90
9103;DHT22;4587;51.434;6.788;2022-09-28T16:41:35;11.40;99.90
9103;DHT22;4587;51.434;6.788;2022-09-28T16:44:04;11.30;99.90
9103;DHT22;4587;51.434;6.788;2022-09-28T16:46:36;11.30;99.90
9103;DHT22;4587;51.434;6.788;2022-09-28T16:49:04;11.20;99.90
9103;DHT22;4587;51.434;6.788;2022-09-28T16:51:30;11.10;99.90
9103;DHT22;4587;51.434;6.788;2022-09-28T16:54:16;11.10;99.90
9103;DHT22;4587;51.434;6.788;2022-09-28T16:57:02;11.10;99.90
9103;DHT22;4587;51.434;6.788;2022-09-28T16:59:28;11.00;99.90
9103;DHT22;4587;51.434;6.788;2022-09-28T17:01:54;11.00;99.90
9103;DHT22;4587;51.434;6.788;2022-09-28T17:04:22;11.00;99.90
9103;DHT22;4587;51.434;6.788;2022-09-28T17:06:49;11.00;99.90
9103;DHT22;4587;51.434;6.788;2022-09-28T17:09:15;11.00;99.90
9103;DHT22;4587;51.434;6.788;2022-09-28T17:11:40;10.90;99.90
9103;DHT22;4587;51.434;6.788;2022-09-28T17:14:06;10.90;99.90
9103;DHT22;4587;51.434;6.788;2022-09-28T17:16:33;10.80;99.90
9103;DHT22;4587;51.434;6.788;2022-09-28T17:19:00;10.80;99.90
9103;DHT22;4587;51.434;6.788;2022-09-28T17:21:25;10.80;99.90
9103;DHT22;4587;51.434;6.788;2022-09-28T17:23:51;10.70;99.90
9103;DHT22;4587;51.434;6.788;2022-09-28T17:26:24;10.60;99.90
9103;DHT22;4587;51.434;6.788;2022-09-28T17:28:52;10.50;99.90
9103;DHT22;4587;51.434;6.788;2022-09-28T17:31:17;10.50;99.90
9103;DHT22;4587;51.434;6.788;2022-09-28T17:33:44;10.50;99.90
9103;DHT22;4587;51.434;6.788;2022-09-28T17:36:13;10.40;99.90
9103;DHT22;4587;51.434;6.788;2022-09-28T17:38:39;10.30;99.90
9103;DHT22;4587;51.434;6.788;2022-09-28T17:41:11;10.30;99.90
9103;DHT22;4587;51.434;6.788;2022-09-28T17:43:37;10.20;99.90
9103;DHT22;4587;51.434;6.788;2022-09-28T17:46:15;10.20;99.90
9103;DHT22;4587;51.434;6.788;2022-09-28T17:48:42;10.10;99.90
9103;DHT22;4587;51.434;6.788;2022-09-28T17:51:12;10.00;99.90
9103;DHT22;4587;51.434;6.788;2022-09-28T17:53:37;10.00;99.90
9103;DHT22;4587;51.434;6.788;2022-09-28T17:56:03;10.00;99.90
9103;DHT22;4587;51.434;6.788;2022-09-28T17:58:29;9.90;99.90
9103;DHT22;4587;51.434;6.788;2022-09-28T18:00:54;10.00;99.90
9103;DHT22;4587;51.434;6.788;2022-09-28T18:03:24;9.90;99.90
9103;DHT22;4587;51.434;6.788;2022-09-28T18:05:57;9.90;99.90
9103;DHT22;4587;51.434;6.788;2022-09-28T18:08:23;9.90;99.90
9103;DHT22;4587;51.434;6.788;2022-09-28T18:10:52;9.90;99.90
9103;DHT22;4587;51.434;6.788;2022-09-28T18:13:19;10.00;99.90
9103;DHT22;4587;51.434;6.788;2022-09-28T18:15:44;10.00;99.90
9103;DHT22;4587;51.434;6.788;2022-09-28T18:18:10;10.00;99.90
9103;DHT22;4587;51.434;6.788;2022-09-28T18:20:37;10.10;99.90
9103;DHT22;4587;51.434;6.788;2022-09-28T18:23:03;10.00;99.90
9103;DHT22;4587;51.434;6.788;2022-09-28T18:25:29;10.00;99.90
9103;DHT22;4587;51.434;6.788;2022-09-28T18:27:55;10.00;99.90
9103;DHT22;4587;51.434;6.788;2022-09-28T18:30:25;10.10;99.90
9103;DHT22;4587;51.434;6.788;2022-09-28T18:32:51;10.10;99.90
9103;DHT22;4587;51.434;6.788;2022-09-28T18:35:17;10.10;99.90
9103;DHT22;4587;51.434;6.788;2022-09-28T18:37:42;10.20;99.90
9103;DHT22;4587;51.434;6.788;2022-09-28T18:40:09;10.10;99.90
9103;DHT22;4587;51.434;6.788;2022-09-28T18:42:37;10.10;99.90
9103;DHT22;4587;51.434;6.788;2022-09-28T18:45:04;10.10;99.90
9103;DHT22;4587;51.434;6.788;2022-09-28T18:47:31;10.10;99.90
9103;DHT22;4587;51.434;6.788;2022-09-28T18:49:57;10.20;99.90
9103;DHT22;4587;51.434;6.788;2022-09-28T18:52:24;10.20;99.90
9103;DHT22;4587;51.434;6.788;2022-09-28T18:54:50;10.10;99.90
9103;DHT22;4587;51.434;6.788;2022-09-28T18:57:16;10.00;99.90
9103;DHT22;4587;51.434;6.788;2022-09-28T18:59:42;10.10;99.90
9103;DHT22;4587;51.434;6.788;2022-09-28T19:02:08;10.00;99.90
9103;DHT22;4587;51.434;6.788;2022-09-28T19:04:36;10.10;99.90
9103;DHT22;4587;51.434;6.788;2022-09-28T19:07:02;10.00;99.90
9103;DHT22;4587;51.434;6.788;2022-09-28T19:09:27;10.00;99.90
9103;DHT22;4587;51.434;6.788;2022-09-28T19:11:53;9.90;99.90
9103;DHT22;4587;51.434;6.788;2022-09-28T19:14:19;9.90;99.90
9103;DHT22;4587;51.434;6.788;2022-09-28T19:16:44;9.80;99.90
9103;DHT22;4587;51.434;6.788;2022-09-28T19:19:12;9.80;99.90
9103;DHT22;4587;51.434;6.788;2022-09-28T19:21:39;9.70;99.90
9103;DHT22;4587;51.434;6.788;2022-09-28T19:24:04;9.80;99.90
9103;DHT22;4587;51.434;6.788;2022-09-28T19:26:30;9.80;99.90
9103;DHT22;4587;51.434;6.788;2022-09-28T19:28:58;9.80;99.90
9103;DHT22;4587;51.434;6.788;2022-09-28T19:31:24;9.80;99.90
9103;DHT22;4587;51.434;6.788;2022-09-28T19:33:50;9.70;99.90
9103;DHT22;4587;51.434;6.788;2022-09-28T19:36:18;9.80;99.90
9103;DHT22;4587;51.434;6.788;2022-09-28T19:38:44;9.70;99.90